createdAt,value
2018-03-27T00:04:18.981Z,72.06
2018-03-27T00:24:55.512Z,71.32
2018-03-27T01:03:34.267Z,74.13
2018-03-27T01:24:09.542Z,74.02
2018-03-27T01:44:47.269Z,75.66
2018-03-27T02:05:22.185Z,76.31
2018-03-27T02:26:00.883Z,76.71
2018-03-27T02:46:38.305Z,77.59
2018-03-27T03:07:13.932Z,77.95
2018-03-27T03:27:50.995Z,78.48
2018-03-27T03:48:25.040Z,78.89
2018-03-27T04:09:00.309Z,79.28
2018-03-27T04:29:35.583Z,79.30
2018-03-27T04:50:12.082Z,79.97
2018-03-27T05:10:50.742Z,80.86
2018-03-27T05:31:29.382Z,81.22
2018-03-27T05:52:03.735Z,80.64
2018-03-27T06:12:42.303Z,79.95
2018-03-27T06:33:17.356Z,79.37
2018-03-27T06:53:52.309Z,76.40
2018-03-27T07:14:26.662Z,75.52
2018-03-27T07:34:59.001Z,73.54
2018-03-27T07:55:33.828Z,71.77
2018-03-27T08:16:08.176Z,72.73
2018-03-27T08:36:40.375Z,69.74
2018-03-27T08:57:16.565Z,68.33
2018-03-27T09:17:51.844Z,66.96
2018-03-27T09:38:28.364Z,67.05
2018-03-27T09:59:05.613Z,64.89
2018-03-27T10:19:38.827Z,63.87
2018-03-27T10:40:12.928Z,60.77
2018-03-27T11:00:48.820Z,62.50
2018-03-27T11:21:22.857Z,63.77
2018-03-27T11:41:55.703Z,63.81
2018-03-27T12:02:30.635Z,65.22
2018-03-27T12:23:08.181Z,66.10
2018-03-27T12:43:51.315Z,72.84
2018-03-27T13:22:28.544Z,72.14
2018-03-27T13:43:04.451Z,71.75
2018-03-27T14:03:38.492Z,76.25
2018-03-27T14:24:15.263Z,76.79
2018-03-27T14:44:49.956Z,77.80
2018-03-27T15:05:22.465Z,75.83
2018-03-27T15:25:59.583Z,74.39
2018-03-27T15:46:37.064Z,75.95
2018-03-27T16:07:13.311Z,77.96
2018-03-27T16:27:47.237Z,81.65
2018-03-27T16:48:23.766Z,79.61
2018-03-27T17:09:00.005Z,82.62
2018-03-27T17:29:34.898Z,85.24
2018-03-27T17:50:09.245Z,83.40
2018-03-27T18:10:42.368Z,84.28
2018-03-27T18:31:18.901Z,86.37
2018-03-27T18:51:53.836Z,87.96
2018-03-27T19:12:31.382Z,87.96
2018-03-27T19:33:08.372Z,89.29
2018-03-27T19:53:44.574Z,89.84
2018-03-27T20:14:17.697Z,90.64
2018-03-27T20:34:55.110Z,90.49
2018-03-27T20:55:29.467Z,89.95
2018-03-27T21:16:03.503Z,90.47
2018-03-27T21:36:35.716Z,91.53
2018-03-27T21:57:11.900Z,91.37
2018-03-27T22:17:44.100Z,91.77
2018-03-27T22:38:15.379Z,92.09
2018-03-27T22:58:55.895Z,92.31
2018-03-27T23:19:30.838Z,92.57
2018-03-27T23:40:04.884Z,92.49
